createdAt,value
2023-01-17T00:00:02.181Z,973.92
2023-01-17T00:00:32.841Z,974.03
2023-01-17T00:01:07.328Z,974.13
2023-01-17T00:01:37.277Z,974.13
2023-01-17T00:01:59.714Z,974.03
2023-01-17T00:02:22.647Z,974.03
2023-01-17T00:02:58.191Z,974.03
2023-01-17T00:03:29.284Z,974.13
2023-01-17T00:04:01.143Z,974.13
2023-01-17T00:04:33.236Z,973.92
2023-01-17T00:04:58.213Z,974.03
2023-01-17T00:05:19.061Z,974.03
2023-01-17T00:05:54.709Z,974.03
2023-01-17T00:06:25.639Z,974.13
2023-01-17T00:06:58.278Z,974.13
2023-01-17T00:07:31.517Z,974.33
2023-01-17T00:08:01.480Z,974.33
2023-01-17T00:08:32.940Z,974.23
2023-01-17T00:09:11.475Z,974.23
2023-01-17T00:09:33.531Z,974.23
2023-01-17T00:09:58.457Z,974.23
2023-01-17T00:10:19.241Z,974.23
2023-01-17T00:10:58.774Z,974.23
2023-01-17T00:11:29.264Z,974.23
2023-01-17T00:12:00.980Z,974.23
2023-01-17T00:12:30.768Z,973.92
2023-01-17T00:13:02.113Z,974.13
2023-01-17T00:13:37.979Z,974.13
2023-01-17T00:14:00.899Z,974.23
2023-01-17T00:14:23.815Z,974.23
2023-01-17T00:14:58.989Z,974.23
2023-01-17T00:15:30.684Z,974.23
2023-01-17T00:16:00.978Z,974.23
2023-01-17T00:16:30.152Z,974.13
2023-01-17T00:17:02.459Z,974.13
2023-01-17T00:17:36.911Z,974.13
2023-01-17T00:17:59.908Z,974.33
2023-01-17T00:18:22.047Z,974.33
2023-01-17T00:18:59.602Z,974.33
2023-01-17T00:19:28.863Z,974.33
2023-01-17T00:20:01.152Z,974.33
2023-01-17T00:20:32.977Z,974.33
2023-01-17T00:20:55.703Z,974.33
2023-01-17T00:21:18.404Z,974.33
2023-01-17T00:21:53.275Z,974.33
2023-01-17T00:22:25.463Z,974.23
2023-01-17T00:23:00.869Z,974.23
2023-01-17T00:23:28.856Z,974.33
2023-01-17T00:24:00.887Z,974.33
2023-01-17T00:24:36.631Z,974.23
2023-01-17T00:25:03.527Z,974.33
2023-01-17T00:25:38.701Z,974.33
2023-01-17T00:26:00.549Z,974.33
2023-01-17T00:26:22.577Z,974.33
2023-01-17T00:26:59.149Z,974.33
2023-01-17T00:27:32.364Z,974.43
2023-01-17T00:28:01.054Z,974.43
2023-01-17T00:28:30.621Z,974.13
2023-01-17T00:29:01.785Z,974.43
2023-01-17T00:29:37.725Z,974.43
2023-01-17T00:30:01.394Z,974.43
2023-01-17T00:30:22.543Z,974.43
2023-01-17T00:30:57.775Z,974.43
2023-01-17T00:31:30.471Z,974.23
2023-01-17T00:32:04.498Z,974.43
2023-01-17T00:32:26.908Z,974.43
2023-01-17T00:33:01.955Z,974.33
2023-01-17T00:33:37.397Z,974.33
2023-01-17T00:34:01.935Z,974.53
2023-01-17T00:34:21.937Z,974.53
2023-01-17T00:34:56.830Z,974.53
2023-01-17T00:35:31.132Z,974.53
2023-01-17T00:36:02.579Z,974.53
2023-01-17T00:36:32.669Z,974.23
2023-01-17T00:36:56.211Z,974.23
2023-01-17T00:37:20.267Z,974.23
2023-01-17T00:37:53.289Z,974.23
2023-01-17T00:38:24.893Z,974.43
2023-01-17T00:38:56.726Z,974.43
2023-01-17T00:39:28.794Z,974.33
2023-01-17T00:40:02.945Z,974.33
2023-01-17T00:40:32.741Z,974.43
2023-01-17T00:40:55.692Z,974.53
2023-01-17T00:41:18.156Z,974.53
2023-01-17T00:41:57.382Z,974.63
2023-01-17T00:42:24.708Z,974.63
2023-01-17T00:42:56.830Z,974.63
2023-01-17T00:43:28.762Z,974.43
2023-01-17T00:44:03.378Z,974.43
2023-01-17T00:44:32.832Z,974.63
2023-01-17T00:44:57.443Z,974.63
2023-01-17T00:45:25.587Z,974.63
2023-01-17T00:45:52.733Z,974.63
2023-01-17T00:46:24.731Z,974.63
2023-01-17T00:47:00.650Z,974.74
2023-01-17T00:47:29.138Z,974.74
2023-01-17T00:48:00.782Z,974.74
2023-01-17T00:48:30.254Z,974.84
2023-01-17T00:49:04.329Z,974.63
2023-01-17T00:49:37.460Z,974.63
2023-01-17T00:49:59.515Z,974.53
2023-01-17T00:50:22.017Z,974.53
2023-01-17T00:50:56.950Z,974.53
2023-01-17T00:51:29.026Z,974.74
2023-01-17T00:52:04.599Z,974.63
2023-01-17T00:52:30.280Z,974.63
2023-01-17T00:53:01.741Z,974.74
2023-01-17T00:53:36.762Z,974.74
2023-01-17T00:54:00.323Z,974.63
2023-01-17T00:54:22.582Z,974.63
2023-01-17T00:54:58.783Z,974.63
2023-01-17T00:55:28.756Z,974.94
2023-01-17T00:56:02.200Z,974.94
2023-01-17T00:56:30.135Z,974.63
2023-01-17T00:57:01.866Z,974.74
2023-01-17T00:57:36.813Z,974.74
2023-01-17T00:57:59.573Z,975.01
2023-01-17T00:58:25.454Z,975.01
2023-01-17T00:58:58.074Z,975.01
2023-01-17T00:59:29.387Z,974.94
2023-01-17T01:00:01.041Z,974.94
2023-01-17T01:00:30.279Z,974.84
2023-01-17T01:01:01.962Z,974.84
2023-01-17T01:01:37.137Z,974.84
2023-01-17T01:02:00.324Z,974.94
2023-01-17T01:02:22.284Z,974.94
2023-01-17T01:02:56.761Z,974.94
2023-01-17T01:03:28.867Z,974.74
2023-01-17T01:04:00.667Z,974.74
2023-01-17T01:04:32.752Z,975.01
2023-01-17T01:05:07.969Z,974.94
2023-01-17T01:05:36.799Z,974.94
2023-01-17T01:05:59.599Z,974.94
2023-01-17T01:06:22.165Z,974.94
2023-01-17T01:06:56.778Z,974.94
2023-01-17T01:07:28.731Z,974.94
2023-01-17T01:08:00.936Z,974.94
2023-01-17T01:08:30.100Z,975.01
2023-01-17T01:09:01.854Z,974.94
2023-01-17T01:09:36.875Z,974.94
2023-01-17T01:10:00.361Z,975.11
2023-01-17T01:10:22.600Z,975.11
2023-01-17T01:10:56.820Z,975.11
2023-01-17T01:11:29.004Z,975.01
2023-01-17T01:12:01.069Z,975.01
2023-01-17T01:12:32.670Z,975.11
2023-01-17T01:12:57.255Z,975.01
2023-01-17T01:13:19.525Z,975.01
2023-01-17T01:13:52.980Z,975.01
2023-01-17T01:14:24.963Z,975.01
2023-01-17T01:15:02.371Z,975.01
2023-01-17T01:15:28.778Z,975.01
2023-01-17T01:16:00.855Z,975.01
2023-01-17T01:16:30.202Z,975.01
2023-01-17T01:17:01.802Z,975.11
2023-01-17T01:17:36.779Z,975.11
2023-01-17T01:17:59.595Z,975.11
2023-01-17T01:18:22.003Z,975.11
2023-01-17T01:18:56.764Z,975.11
2023-01-17T01:19:28.667Z,975.11
2023-01-17T01:20:04.246Z,975.11
2023-01-17T01:20:32.723Z,975.11
2023-01-17T01:20:55.918Z,975.11
2023-01-17T01:21:18.164Z,975.11
2023-01-17T01:21:52.723Z,975.11
2023-01-17T01:22:25.035Z,975.11
2023-01-17T01:22:56.947Z,975.11
2023-01-17T01:23:28.724Z,975.11
2023-01-17T01:24:00.799Z,975.11
2023-01-17T01:24:32.897Z,975.01
2023-01-17T01:24:56.452Z,975.21
2023-01-17T01:25:18.962Z,975.21
2023-01-17T01:25:53.312Z,975.21
2023-01-17T01:26:24.806Z,975.11
2023-01-17T01:26:56.783Z,975.11
2023-01-17T01:27:28.990Z,975.11
2023-01-17T01:28:00.861Z,975.11
2023-01-17T01:28:30.190Z,975.21
2023-01-17T01:28:55.839Z,975.31
2023-01-17T01:29:18.570Z,975.31
2023-01-17T01:29:52.859Z,975.31
2023-01-17T01:30:24.831Z,975.31
2023-01-17T01:30:57.044Z,975.31
2023-01-17T01:31:30.210Z,975.21
2023-01-17T01:32:00.695Z,975.21
2023-01-17T01:32:30.206Z,975.21
2023-01-17T01:33:01.851Z,975.31
2023-01-17T01:33:41.249Z,975.31
2023-01-17T01:34:00.042Z,975.41
2023-01-17T01:34:22.319Z,975.41
2023-01-17T01:34:56.836Z,975.41
2023-01-17T01:35:28.819Z,975.41
2023-01-17T01:36:00.900Z,975.41
2023-01-17T01:36:32.765Z,975.31
2023-01-17T01:36:57.767Z,975.52
2023-01-17T01:37:20.193Z,975.52
2023-01-17T01:37:52.719Z,975.52
2023-01-17T01:38:24.802Z,975.31
2023-01-17T01:38:56.769Z,975.31
2023-01-17T01:39:28.814Z,975.31
2023-01-17T01:40:00.657Z,975.31
2023-01-17T01:40:30.582Z,975.41
2023-01-17T01:41:01.804Z,975.31
2023-01-17T01:41:36.758Z,975.31
2023-01-17T01:41:59.529Z,975.21
2023-01-17T01:42:21.999Z,975.21
2023-01-17T01:42:56.784Z,975.21
2023-01-17T01:43:28.767Z,975.31
2023-01-17T01:44:00.836Z,975.31
2023-01-17T01:44:30.247Z,975.41
2023-01-17T01:45:02.063Z,975.41
2023-01-17T01:45:36.837Z,975.41
2023-01-17T01:45:59.777Z,975.21
2023-01-17T01:46:21.857Z,975.21
2023-01-17T01:46:56.799Z,975.21
2023-01-17T01:47:28.944Z,975.21
2023-01-17T01:48:00.875Z,975.21
2023-01-17T01:48:32.913Z,975.41
2023-01-17T01:48:56.193Z,975.31
2023-01-17T01:49:18.567Z,975.31
2023-01-17T01:49:53.242Z,975.31
2023-01-17T01:50:24.974Z,975.41
2023-01-17T01:50:56.785Z,975.41
2023-01-17T01:51:28.793Z,975.31
2023-01-17T01:52:00.699Z,975.31
2023-01-17T01:52:32.988Z,975.31
2023-01-17T01:52:55.872Z,975.21
2023-01-17T01:53:18.293Z,975.21
2023-01-17T01:53:52.753Z,975.21
2023-01-17T01:54:24.829Z,975.31
2023-01-17T01:54:51.291Z,975.31
2023-01-17T01:55:29.258Z,975.31
2023-01-17T01:56:03.162Z,975.31
2023-01-17T01:56:33.101Z,975.41
2023-01-17T01:56:55.703Z,975.52
2023-01-17T01:57:18.823Z,975.52
2023-01-17T01:57:54.279Z,975.52
2023-01-17T01:58:25.704Z,975.62
2023-01-17T01:58:57.454Z,975.62
2023-01-17T01:59:29.601Z,975.41
2023-01-17T02:00:01.134Z,975.41
2023-01-17T02:00:30.388Z,975.31
2023-01-17T02:01:12.830Z,975.62
2023-01-17T02:01:31.681Z,975.62
2023-01-17T02:02:01.743Z,975.52
2023-01-17T02:02:24.154Z,975.52
2023-01-17T02:02:56.905Z,975.52
2023-01-17T02:03:29.062Z,975.52
2023-01-17T02:04:01.304Z,975.52
2023-01-17T02:04:31.057Z,975.41
2023-01-17T02:05:04.546Z,975.52
2023-01-17T02:05:40.834Z,975.52
2023-01-17T02:05:59.711Z,975.62
2023-01-17T02:06:23.423Z,975.62
2023-01-17T02:06:58.927Z,975.62
2023-01-17T02:07:29.120Z,975.52
2023-01-17T02:08:00.763Z,975.52
2023-01-17T02:08:30.266Z,975.62
2023-01-17T02:09:01.831Z,975.62
2023-01-17T02:09:37.330Z,975.62
2023-01-17T02:09:59.609Z,975.72
2023-01-17T02:10:21.979Z,975.72
2023-01-17T02:10:57.111Z,975.72
2023-01-17T02:11:28.667Z,975.62
2023-01-17T02:12:01.128Z,975.62
2023-01-17T02:12:30.466Z,975.62
2023-01-17T02:13:03.997Z,975.72
2023-01-17T02:13:37.138Z,975.72
2023-01-17T02:13:59.877Z,976.02
2023-01-17T02:14:22.960Z,976.02
2023-01-17T02:14:59.930Z,976.02
2023-01-17T02:15:29.488Z,975.72
2023-01-17T02:16:02.381Z,975.72
2023-01-17T02:16:31.790Z,976.02
2023-01-17T02:17:02.308Z,975.92
2023-01-17T02:17:37.848Z,975.92
2023-01-17T02:18:00.187Z,976.02
2023-01-17T02:18:23.062Z,976.02
2023-01-17T02:18:56.994Z,976.02
2023-01-17T02:19:29.103Z,975.72
2023-01-17T02:20:07.754Z,975.82
2023-01-17T02:20:30.190Z,975.82
2023-01-17T02:21:02.275Z,975.82
2023-01-17T02:21:36.772Z,975.82
2023-01-17T02:21:59.528Z,975.82
2023-01-17T02:22:21.913Z,975.82
2023-01-17T02:22:56.915Z,975.82
2023-01-17T02:23:28.956Z,975.82
2023-01-17T02:24:00.680Z,975.82
2023-01-17T02:24:32.895Z,975.82
2023-01-17T02:25:04.904Z,975.92
2023-01-17T02:25:37.110Z,975.92
2023-01-17T02:25:59.791Z,976.02
2023-01-17T02:26:23.657Z,976.02
2023-01-17T02:26:56.659Z,976.02
2023-01-17T02:27:29.130Z,976.02
2023-01-17T02:28:01.068Z,976.02
2023-01-17T02:28:32.965Z,976.02
2023-01-17T02:29:04.793Z,976.02
2023-01-17T02:29:36.688Z,976.02
2023-01-17T02:30:00.758Z,976.02
2023-01-17T02:30:23.599Z,976.02
2023-01-17T02:30:57.158Z,976.02
2023-01-17T02:31:28.806Z,975.92
2023-01-17T02:32:01.071Z,975.92
2023-01-17T02:32:32.628Z,975.92
2023-01-17T02:32:55.593Z,975.72
2023-01-17T02:33:19.761Z,975.72
2023-01-17T02:33:52.760Z,975.72
2023-01-17T02:34:24.887Z,975.82
2023-01-17T02:34:56.864Z,975.82
2023-01-17T02:35:30.165Z,976.12
2023-01-17T02:36:00.632Z,976.12
2023-01-17T02:36:32.783Z,976.02
2023-01-17T02:36:56.210Z,975.82
2023-01-17T02:37:20.547Z,975.82
2023-01-17T02:37:52.836Z,975.82
2023-01-17T02:38:24.847Z,976.02
2023-01-17T02:38:56.676Z,976.02
2023-01-17T02:39:29.581Z,976.02
2023-01-17T02:40:00.694Z,976.02
2023-01-17T02:40:30.155Z,976.02
2023-01-17T02:41:01.699Z,976.02
2023-01-17T02:41:36.747Z,976.02
2023-01-17T02:41:59.478Z,976.02
2023-01-17T02:42:21.879Z,976.02
2023-01-17T02:42:56.771Z,976.02
2023-01-17T02:43:28.721Z,976.23
2023-01-17T02:44:00.633Z,976.23
2023-01-17T02:44:30.198Z,976.02
2023-01-17T02:45:01.965Z,976.12
2023-01-17T02:45:36.856Z,976.12
2023-01-17T02:46:00.285Z,976.12
2023-01-17T02:46:22.624Z,976.12
2023-01-17T02:46:56.829Z,976.12
2023-01-17T02:47:28.910Z,976.12
2023-01-17T02:48:00.948Z,976.12
2023-01-17T02:48:30.301Z,976.02
2023-01-17T02:49:01.734Z,976.33
2023-01-17T02:49:36.895Z,976.33
2023-01-17T02:49:59.548Z,976.12
2023-01-17T02:50:21.978Z,976.12
2023-01-17T02:50:56.772Z,976.12
2023-01-17T02:51:28.806Z,976.53
2023-01-17T02:52:01.685Z,976.53
2023-01-17T02:52:32.965Z,976.33
2023-01-17T02:52:55.892Z,976.33
2023-01-17T02:53:18.207Z,976.33
2023-01-17T02:53:53.327Z,976.33
2023-01-17T02:54:24.684Z,976.43
2023-01-17T02:54:56.691Z,976.43
2023-01-17T02:55:28.928Z,976.23
2023-01-17T02:56:00.684Z,976.23
2023-01-17T02:56:33.215Z,976.23
2023-01-17T02:56:56.732Z,976.43
2023-01-17T02:57:19.276Z,976.43
2023-01-17T02:57:52.702Z,976.43
2023-01-17T02:58:24.887Z,976.23
2023-01-17T02:58:56.801Z,976.23
2023-01-17T02:59:31.161Z,976.23
2023-01-17T03:00:01.210Z,976.23
2023-01-17T03:00:32.844Z,976.33
2023-01-17T03:00:56.527Z,976.33
2023-01-17T03:01:18.774Z,976.33
2023-01-17T03:01:53.094Z,976.33
2023-01-17T03:02:41.858Z,976.33
2023-01-17T03:03:04.317Z,976.43
2023-01-17T03:03:26.632Z,976.43
2023-01-17T03:04:01.357Z,976.43
2023-01-17T03:04:32.730Z,976.43
2023-01-17T03:05:04.779Z,976.33
2023-01-17T03:05:36.875Z,976.33
2023-01-17T03:05:59.748Z,976.33
2023-01-17T03:06:23.937Z,976.33
2023-01-17T03:06:57.259Z,976.33
2023-01-17T03:07:30.286Z,976.43
2023-01-17T03:08:01.527Z,976.43
2023-01-17T03:08:33.010Z,976.53
2023-01-17T03:08:55.766Z,976.53
2023-01-17T03:09:18.334Z,976.53
2023-01-17T03:09:53.116Z,976.53
2023-01-17T03:10:25.249Z,976.53
2023-01-17T03:10:56.860Z,976.53
2023-01-17T03:11:31.799Z,976.53
2023-01-17T03:12:01.006Z,976.53
2023-01-17T03:12:30.756Z,976.84
2023-01-17T03:13:03.115Z,976.43
2023-01-17T03:13:38.108Z,976.43
2023-01-17T03:14:00.701Z,976.63
2023-01-17T03:14:31.055Z,976.63
2023-01-17T03:14:57.020Z,976.63
2023-01-17T03:15:30.753Z,976.94
2023-01-17T03:16:01.022Z,976.94
2023-01-17T03:16:30.864Z,976.63
2023-01-17T03:17:01.844Z,976.63
2023-01-17T03:17:37.082Z,976.63
2023-01-17T03:18:01.228Z,976.53
2023-01-17T03:18:22.204Z,976.53
2023-01-17T03:18:57.859Z,976.53
2023-01-17T03:19:28.757Z,976.73
2023-01-17T03:20:03.998Z,976.73
2023-01-17T03:20:36.291Z,976.84
2023-01-17T03:20:58.713Z,976.73
2023-01-17T03:21:37.049Z,976.73
2023-01-17T03:21:59.483Z,976.53
2023-01-17T03:22:22.055Z,976.53
2023-01-17T03:22:57.545Z,976.53
2023-01-17T03:23:29.209Z,976.73
2023-01-17T03:24:00.989Z,976.73
2023-01-17T03:24:32.971Z,976.84
2023-01-17T03:25:02.581Z,976.73
2023-01-17T03:25:37.138Z,976.73
2023-01-17T03:26:03.638Z,977.04
2023-01-17T03:26:23.711Z,977.04
2023-01-17T03:26:56.721Z,977.04
2023-01-17T03:27:29.132Z,976.73
2023-01-17T03:28:00.832Z,976.73
2023-01-17T03:28:30.778Z,976.94
2023-01-17T03:29:02.184Z,976.84
2023-01-17T03:29:36.801Z,976.84
2023-01-17T03:29:59.381Z,977.04
2023-01-17T03:30:22.008Z,977.04
2023-01-17T03:30:57.181Z,977.04
2023-01-17T03:31:29.473Z,977.21
2023-01-17T03:32:00.838Z,977.21
2023-01-17T03:32:30.333Z,976.84
2023-01-17T03:33:01.859Z,977.04
2023-01-17T03:33:42.184Z,977.04
2023-01-17T03:34:09.500Z,977.14
2023-01-17T03:34:41.259Z,977.14
2023-01-17T03:35:03.882Z,976.94
2023-01-17T03:35:26.985Z,976.94
2023-01-17T03:36:08.314Z,976.94
2023-01-17T03:36:30.108Z,976.94
2023-01-17T03:37:02.026Z,977.14
2023-01-17T03:37:39.162Z,977.14
2023-01-17T03:37:59.801Z,977.14
2023-01-17T03:38:22.212Z,977.14
2023-01-17T03:38:56.733Z,977.14
2023-01-17T03:39:28.759Z,977.04
2023-01-17T03:40:00.813Z,977.04
2023-01-17T03:40:30.553Z,977.14
2023-01-17T03:41:01.876Z,977.14
2023-01-17T03:41:36.743Z,977.14
2023-01-17T03:41:59.518Z,977.04
2023-01-17T03:42:21.756Z,977.04
2023-01-17T03:42:56.688Z,977.04
2023-01-17T03:43:28.749Z,977.14
2023-01-17T03:44:00.683Z,977.14
2023-01-17T03:44:30.672Z,977.14
2023-01-17T03:45:02.201Z,977.14
2023-01-17T03:45:36.931Z,977.14
2023-01-17T03:45:59.466Z,977.14
2023-01-17T03:46:21.724Z,977.14
2023-01-17T03:46:56.760Z,977.14
2023-01-17T03:47:29.024Z,977.21
2023-01-17T03:48:00.877Z,977.21
2023-01-17T03:48:30.120Z,977.31
2023-01-17T03:49:01.859Z,977.41
2023-01-17T03:49:37.285Z,977.41
2023-01-17T03:50:00.973Z,977.51
2023-01-17T03:50:23.203Z,977.51
2023-01-17T03:50:57.059Z,977.51
2023-01-17T03:51:29.008Z,977.41
2023-01-17T03:52:01.020Z,977.41
2023-01-17T03:52:32.882Z,977.21
2023-01-17T03:52:55.587Z,977.31
2023-01-17T03:53:18.130Z,977.31
2023-01-17T03:53:52.770Z,977.31
2023-01-17T03:54:24.808Z,977.31
2023-01-17T03:54:56.894Z,977.31
2023-01-17T03:55:29.712Z,977.41
2023-01-17T03:56:00.858Z,977.41
2023-01-17T03:56:30.240Z,977.31
2023-01-17T03:57:01.903Z,977.61
2023-01-17T03:57:36.765Z,977.61
2023-01-17T03:58:00.449Z,977.31
2023-01-17T03:58:28.275Z,977.31
2023-01-17T03:58:56.645Z,977.31
2023-01-17T03:59:30.075Z,977.51
2023-01-17T04:00:01.284Z,977.51
2023-01-17T04:00:30.345Z,977.51
2023-01-17T04:01:07.476Z,977.51
2023-01-17T04:01:37.260Z,977.51
2023-01-17T04:01:59.918Z,977.72
2023-01-17T04:02:22.196Z,977.72
2023-01-17T04:02:56.696Z,977.72
2023-01-17T04:03:30.408Z,977.72
2023-01-17T04:04:00.815Z,977.72
2023-01-17T04:04:30.816Z,977.61
2023-01-17T04:05:02.051Z,977.82
2023-01-17T04:05:36.851Z,977.82
2023-01-17T04:05:59.852Z,977.51
2023-01-17T04:06:22.079Z,977.51
2023-01-17T04:07:01.807Z,977.61
2023-01-17T04:07:30.876Z,977.61
2023-01-17T04:08:00.854Z,977.61
2023-01-17T04:08:31.071Z,977.51
2023-01-17T04:09:01.789Z,977.61
2023-01-17T04:09:36.745Z,977.61
2023-01-17T04:09:59.500Z,977.82
2023-01-17T04:10:21.900Z,977.82
2023-01-17T04:10:56.800Z,977.82
2023-01-17T04:11:28.701Z,977.72
2023-01-17T04:12:00.870Z,977.72
2023-01-17T04:12:31.546Z,977.82
2023-01-17T04:13:02.190Z,977.92
2023-01-17T04:13:36.725Z,977.92
2023-01-17T04:14:00.000Z,977.82
2023-01-17T04:14:23.007Z,977.82
2023-01-17T04:14:56.802Z,977.82
2023-01-17T04:15:28.870Z,977.92
2023-01-17T04:16:01.465Z,977.92
2023-01-17T04:16:32.443Z,977.92
2023-01-17T04:17:02.011Z,978.02
2023-01-17T04:17:36.771Z,978.02
2023-01-17T04:18:00.228Z,977.82
2023-01-17T04:18:26.630Z,977.82
2023-01-17T04:18:51.621Z,977.82
2023-01-17T04:19:30.889Z,977.92
2023-01-17T04:20:04.855Z,977.92
2023-01-17T04:20:32.751Z,977.82
2023-01-17T04:21:08.241Z,978.12
2023-01-17T04:21:37.597Z,978.12
2023-01-17T04:21:59.774Z,977.92
2023-01-17T04:22:23.283Z,977.92
2023-01-17T04:22:56.791Z,977.92
2023-01-17T04:23:29.612Z,977.92
2023-01-17T04:24:00.870Z,977.92
2023-01-17T04:24:30.197Z,977.92
2023-01-17T04:25:02.970Z,978.12
2023-01-17T04:25:37.655Z,978.12
2023-01-17T04:26:00.328Z,978.22
2023-01-17T04:26:22.745Z,978.22
2023-01-17T04:26:58.611Z,978.22
2023-01-17T04:27:28.756Z,978.02
2023-01-17T04:28:11.061Z,977.92
2023-01-17T04:28:30.045Z,977.92
2023-01-17T04:29:01.894Z,978.22
2023-01-17T04:29:36.661Z,978.22
2023-01-17T04:29:59.602Z,978.12
2023-01-17T04:30:21.950Z,978.12
2023-01-17T04:30:56.765Z,978.12
2023-01-17T04:31:30.390Z,978.02
2023-01-17T04:32:03.184Z,978.02
2023-01-17T04:32:34.479Z,978.12
2023-01-17T04:32:56.600Z,978.12
2023-01-17T04:33:18.878Z,978.12
2023-01-17T04:33:52.873Z,978.12
2023-01-17T04:34:25.081Z,978.12
2023-01-17T04:34:56.709Z,978.12
2023-01-17T04:35:29.463Z,978.22
2023-01-17T04:36:00.863Z,978.22
2023-01-17T04:36:29.778Z,978.12
2023-01-17T04:37:02.669Z,978.12
2023-01-17T04:37:54.466Z,978.12
2023-01-17T04:38:24.907Z,978.12
2023-01-17T04:38:57.425Z,978.12
2023-01-17T04:39:29.184Z,978.22
2023-01-17T04:40:01.400Z,978.22
2023-01-17T04:40:32.752Z,978.53
2023-01-17T04:41:02.007Z,978.22
2023-01-17T04:41:40.093Z,978.22
2023-01-17T04:42:00.270Z,978.43
2023-01-17T04:42:23.933Z,978.43
2023-01-17T04:42:56.840Z,978.43
2023-01-17T04:43:29.411Z,978.43
2023-01-17T04:44:00.782Z,978.43
2023-01-17T04:44:30.248Z,978.22
2023-01-17T04:45:03.093Z,978.63
2023-01-17T04:45:37.477Z,978.63
2023-01-17T04:45:59.946Z,978.43
2023-01-17T04:46:22.015Z,978.43
2023-01-17T04:46:59.257Z,978.53
2023-01-17T04:47:29.641Z,978.53
2023-01-17T04:48:01.604Z,978.53
2023-01-17T04:48:33.218Z,978.63
2023-01-17T04:48:59.647Z,978.43
2023-01-17T04:49:21.945Z,978.43
2023-01-17T04:49:52.734Z,978.43
2023-01-17T04:50:24.866Z,978.53
2023-01-17T04:50:56.776Z,978.53
2023-01-17T04:51:28.822Z,978.43
2023-01-17T04:52:01.325Z,978.43
2023-01-17T04:52:30.711Z,978.53
2023-01-17T04:53:02.186Z,978.63
2023-01-17T04:53:37.571Z,978.63
2023-01-17T04:53:59.619Z,978.53
2023-01-17T04:54:29.841Z,978.53
2023-01-17T04:54:51.325Z,978.53
2023-01-17T04:55:28.930Z,978.63
2023-01-17T04:56:00.844Z,978.63
2023-01-17T04:56:30.646Z,978.73
2023-01-17T04:57:03.396Z,978.63
2023-01-17T04:57:38.174Z,978.63
2023-01-17T04:57:59.542Z,978.63
2023-01-17T04:58:21.871Z,978.63
2023-01-17T04:58:56.802Z,978.63
2023-01-17T04:59:28.910Z,978.83
2023-01-17T05:00:01.151Z,978.83
2023-01-17T05:00:30.171Z,978.94
2023-01-17T05:01:01.786Z,978.73
2023-01-17T05:01:38.635Z,978.73
2023-01-17T05:02:04.663Z,978.83
2023-01-17T05:02:24.623Z,978.83
2023-01-17T05:02:56.722Z,978.83
2023-01-17T05:03:28.626Z,978.73
2023-01-17T05:04:00.647Z,978.73
2023-01-17T05:04:30.167Z,978.94
2023-01-17T05:05:01.934Z,979.04
2023-01-17T05:05:38.928Z,979.04
2023-01-17T05:05:59.373Z,979.24
2023-01-17T05:06:21.826Z,979.24
2023-01-17T05:06:56.985Z,979.24
2023-01-17T05:07:28.759Z,978.94
2023-01-17T05:08:00.746Z,978.94
2023-01-17T05:08:30.131Z,979.04
2023-01-17T05:09:01.863Z,979.04
2023-01-17T05:09:36.708Z,979.04
2023-01-17T05:09:59.739Z,979.04
2023-01-17T05:10:22.125Z,979.04
2023-01-17T05:10:56.766Z,979.04
2023-01-17T05:11:28.968Z,979.14
2023-01-17T05:12:00.983Z,979.14
2023-01-17T05:12:34.566Z,979.04
2023-01-17T05:13:01.970Z,979.04
2023-01-17T05:13:36.715Z,979.04
2023-01-17T05:13:59.447Z,979.14
2023-01-17T05:14:22.094Z,979.14
2023-01-17T05:14:56.825Z,979.14
2023-01-17T05:15:29.208Z,979.24
2023-01-17T05:16:00.860Z,979.24
2023-01-17T05:16:30.211Z,978.94
2023-01-17T05:17:06.095Z,979.14
2023-01-17T05:17:37.773Z,979.14
2023-01-17T05:17:59.760Z,979.14
2023-01-17T05:18:22.122Z,979.14
2023-01-17T05:18:57.294Z,979.14
2023-01-17T05:19:28.846Z,979.14
2023-01-17T05:20:00.902Z,979.14
2023-01-17T05:20:30.177Z,979.24
2023-01-17T05:21:01.965Z,979.31
2023-01-17T05:21:36.827Z,979.31
2023-01-17T05:22:00.844Z,979.24
2023-01-17T05:22:23.314Z,979.24
2023-01-17T05:22:56.879Z,979.24
2023-01-17T05:23:28.858Z,979.14
2023-01-17T05:24:00.632Z,979.14
2023-01-17T05:24:30.262Z,979.24
2023-01-17T05:25:01.938Z,979.31
2023-01-17T05:25:36.934Z,979.31
2023-01-17T05:26:00.284Z,979.14
2023-01-17T05:26:22.128Z,979.14
2023-01-17T05:26:56.741Z,979.14
2023-01-17T05:27:29.685Z,979.24
2023-01-17T05:28:01.151Z,979.24
2023-01-17T05:28:32.737Z,979.14
2023-01-17T05:28:56.230Z,979.61
2023-01-17T05:29:18.505Z,979.61
2023-01-17T05:29:53.012Z,979.61
2023-01-17T05:30:22.773Z,979.24
2023-01-17T05:31:00.349Z,979.41
2023-01-17T05:31:29.416Z,979.41
2023-01-17T05:32:00.908Z,979.41
2023-01-17T05:32:39.539Z,979.24
2023-01-17T05:32:59.770Z,979.41
2023-01-17T05:33:37.298Z,979.41
2023-01-17T05:33:59.924Z,979.51
2023-01-17T05:34:22.148Z,979.51
2023-01-17T05:35:00.456Z,979.14
2023-01-17T05:35:28.843Z,979.14
2023-01-17T05:36:00.668Z,979.14
2023-01-17T05:36:30.525Z,979.51
2023-01-17T05:37:06.876Z,979.24
2023-01-17T05:38:02.609Z,979.24
2023-01-17T05:38:40.767Z,979.24
2023-01-17T05:39:05.687Z,979.24
2023-01-17T05:39:26.879Z,979.24
2023-01-17T05:40:04.388Z,979.24
2023-01-17T05:40:32.845Z,979.14
2023-01-17T05:40:57.802Z,979.51
2023-01-17T05:41:18.682Z,979.51
2023-01-17T05:41:52.810Z,979.51
2023-01-17T05:42:24.718Z,979.31
2023-01-17T05:42:57.101Z,979.31
2023-01-17T05:43:28.966Z,979.51
2023-01-17T05:44:00.862Z,979.51
2023-01-17T05:44:32.772Z,979.41
2023-01-17T05:44:55.693Z,979.51
2023-01-17T05:45:18.454Z,979.51
2023-01-17T05:45:52.846Z,979.51
2023-01-17T05:46:24.776Z,979.41
2023-01-17T05:46:56.655Z,979.41
2023-01-17T05:47:40.152Z,979.41
2023-01-17T05:48:00.816Z,979.41
2023-01-17T05:48:30.223Z,979.61
2023-01-17T05:49:01.911Z,979.51
2023-01-17T05:49:36.679Z,979.51
2023-01-17T05:49:59.423Z,979.41
2023-01-17T05:50:21.868Z,979.41
2023-01-17T05:51:00.165Z,979.41
2023-01-17T05:51:28.745Z,979.61
2023-01-17T05:52:00.971Z,979.61
2023-01-17T05:52:33.058Z,979.41
2023-01-17T05:52:56.551Z,979.51
2023-01-17T05:53:21.476Z,979.51
2023-01-17T05:53:52.683Z,979.51
2023-01-17T05:54:24.800Z,979.51
2023-01-17T05:54:56.927Z,979.51
2023-01-17T05:55:28.676Z,979.51
2023-01-17T05:56:00.744Z,979.51
2023-01-17T05:56:32.782Z,979.71
2023-01-17T05:56:59.027Z,979.71
2023-01-17T05:57:18.824Z,979.71
2023-01-17T05:57:54.307Z,979.71
2023-01-17T05:58:24.914Z,979.71
2023-01-17T05:58:56.806Z,979.71
2023-01-17T05:59:36.908Z,979.71
2023-01-17T06:00:01.657Z,979.71
2023-01-17T06:00:30.227Z,979.71
2023-01-17T06:01:02.145Z,979.61
2023-01-17T06:01:36.717Z,979.61
2023-01-17T06:02:00.153Z,979.61
2023-01-17T06:02:22.710Z,979.61
2023-01-17T06:02:56.852Z,979.61
2023-01-17T06:03:31.159Z,979.71
2023-01-17T06:04:00.795Z,979.71
2023-01-17T06:04:30.179Z,979.82
2023-01-17T06:05:03.521Z,979.61
2023-01-17T06:05:36.743Z,979.61
2023-01-17T06:05:59.670Z,979.51
2023-01-17T06:06:22.119Z,979.51
2023-01-17T06:06:56.758Z,979.51
2023-01-17T06:07:29.340Z,979.61
2023-01-17T06:08:00.715Z,979.61
2023-01-17T06:08:33.641Z,979.71
2023-01-17T06:08:56.238Z,979.82
2023-01-17T06:09:18.732Z,979.82
2023-01-17T06:09:53.043Z,979.82
2023-01-17T06:10:24.813Z,979.92
2023-01-17T06:10:56.798Z,979.92
2023-01-17T06:11:28.818Z,979.92
2023-01-17T06:12:00.961Z,979.92
2023-01-17T06:12:32.813Z,980.02
2023-01-17T06:13:03.434Z,980.02
2023-01-17T06:13:36.807Z,980.02
2023-01-17T06:13:59.955Z,979.82
2023-01-17T06:14:22.295Z,979.82
2023-01-17T06:14:57.019Z,979.82